Time;durP1;ratioP1;P1;durP2;ratioP2;P2;SDS_P1;SDS_P2;PMS_P1;PMS_P2;Temp;Humidity;BMP_temperature;BMP_pressure;BME280_temperature;BME280_humidity;BME280_pressure;Samples;Min_cycle;Max_cycle;Signal;HPM_P1;HPM_P2
2023/06/10 00:02:16;;;;;;;6.10;5.10;;;;;;;;;;5089630;28;20025;-72
2023/06/10 00:04:42;;;;;;;6.75;5.05;;;;;;;;;;5067132;28;20038;-72
2023/06/10 00:07:08;;;;;;;6.40;4.63;;;;;;;;;;5087893;28;20047;-73
2023/06/10 00:09:37;;;;;;;5.25;4.55;;;;;;;;;;5091326;28;20104;-73
2023/06/10 00:12:12;;;;;;;5.55;4.75;;;;;;;;;;5071659;28;20047;-75
2023/06/10 00:14:39;;;;;;;5.88;5.00;;;;;;;;;;5085327;28;20032;-76
2023/06/10 00:17:09;;;;;;;7.85;5.00;;;;;;;;;;5083365;28;20125;-74
2023/06/10 00:19:41;;;;;;;7.00;5.43;;;;;;;;;;5082691;28;20028;-73
2023/06/10 00:22:07;;;;;;;7.47;5.63;;;;;;;;;;5061867;28;20052;-74
2023/06/10 00:24:32;;;;;;;6.03;5.03;;;;;;;;;;5082769;28;20016;-74
2023/06/10 00:26:58;;;;;;;6.93;5.20;;;;;;;;;;5080256;28;20073;-73
2023/06/10 00:29:23;;;;;;;6.90;5.05;;;;;;;;;;5067759;28;20036;-73
2023/06/10 00:31:48;;;;;;;9.50;5.22;;;;;;;;;;5082507;28;20035;-73
2023/06/10 00:34:14;;;;;;;7.50;5.18;;;;;;;;;;5079526;28;20032;-73
2023/06/10 00:36:39;;;;;;;7.57;5.00;;;;;;;;;;5059891;28;20131;-72
2023/06/10 00:39:05;;;;;;;5.63;5.00;;;;;;;;;;5063650;28;20078;-73
2023/06/10 00:41:30;;;;;;;6.53;5.25;;;;;;;;;;5082683;28;20024;-75
2023/06/10 00:43:56;;;;;;;6.20;5.00;;;;;;;;;;5066713;28;20391;-73
2023/06/10 00:46:23;;;;;;;6.50;5.20;;;;;;;;;;5083660;28;20024;-73
2023/06/10 00:48:49;;;;;;;6.75;5.68;;;;;;;;;;5080007;28;20055;-72
2023/06/10 00:51:16;;;;;;;6.03;5.00;;;;;;;;;;5063795;28;20028;-72
2023/06/10 00:53:42;;;;;;;6.82;5.60;;;;;;;;;;5076085;28;20515;-73
2023/06/10 00:56:08;;;;;;;6.28;5.43;;;;;;;;;;5083199;28;20028;-73
2023/06/10 00:58:35;;;;;;;7.03;5.20;;;;;;;;;;5086097;28;20069;-72
2023/06/10 01:01:00;;;;;;;6.47;5.00;;;;;;;;;;5081379;28;20056;-73
2023/06/10 01:03:25;;;;;;;7.43;5.22;;;;;;;;;;5081043;28;20554;-73
2023/06/10 01:06:01;;;;;;;7.72;5.78;;;;;;;;;;5070507;28;20460;-73
2023/06/10 01:08:44;;;;;;;5.88;5.28;;;;;;;;;;5069780;28;20023;-76
2023/06/10 01:11:17;;;;;;;6.05;5.38;;;;;;;;;;5085923;28;20422;-72
2023/06/10 01:13:45;;;;;;;7.00;5.63;;;;;;;;;;5085374;28;20050;-73
2023/06/10 01:16:11;;;;;;;7.55;5.40;;;;;;;;;;5083669;28;20031;-73
2023/06/10 01:18:38;;;;;;;8.52;5.53;;;;;;;;;;5085472;28;20032;-75
2023/06/10 01:21:04;;;;;;;6.63;5.40;;;;;;;;;;5081452;28;20024;-74
2023/06/10 01:23:29;;;;;;;8.38;6.47;;;;;;;;;;5088982;28;20368;-73
2023/06/10 01:26:05;;;;;;;7.47;5.75;;;;;;;;;;5072132;28;20020;-72
2023/06/10 01:28:38;;;;;;;6.30;5.38;;;;;;;;;;5092863;28;20040;-75
2023/06/10 01:31:16;;;;;;;6.38;5.43;;;;;;;;;;5066256;28;20024;-74
2023/06/10 01:33:45;;;;;;;9.20;6.00;;;;;;;;;;5082091;28;20036;-73
2023/06/10 01:36:12;;;;;;;6.85;5.68;;;;;;;;;;5089058;28;20062;-76
2023/06/10 01:38:43;;;;;;;7.45;5.80;;;;;;;;;;5085483;28;20521;-72
2023/06/10 01:41:12;;;;;;;11.35;5.82;;;;;;;;;;5084059;28;20063;-73
2023/06/10 01:43:38;;;;;;;7.30;5.60;;;;;;;;;;5081586;28;20080;-74
2023/06/10 01:46:04;;;;;;;8.15;6.10;;;;;;;;;;5082933;28;20086;-73
2023/06/10 01:48:29;;;;;;;7.50;5.88;;;;;;;;;;5068339;28;20020;-72
2023/06/10 01:50:57;;;;;;;7.57;5.72;;;;;;;;;;5086386;28;20050;-72
2023/06/10 01:53:23;;;;;;;7.65;6.03;;;;;;;;;;5066176;28;20025;-72
2023/06/10 01:55:48;;;;;;;7.25;5.78;;;;;;;;;;5067646;28;20027;-73
2023/06/10 01:58:13;;;;;;;8.55;6.13;;;;;;;;;;5088636;28;20483;-74
2023/06/10 02:00:39;;;;;;;6.95;5.55;;;;;;;;;;5083012;28;20028;-72
2023/06/10 02:03:04;;;;;;;6.65;5.57;;;;;;;;;;5088785;28;20464;-72
2023/06/10 02:05:30;;;;;;;9.13;5.82;;;;;;;;;;5082278;28;20452;-76
2023/06/10 02:07:55;;;;;;;7.38;5.78;;;;;;;;;;5087377;28;20028;-72
2023/06/10 02:10:21;;;;;;;7.07;6.03;;;;;;;;;;5067486;28;20386;-73
2023/06/10 02:12:46;;;;;;;9.05;5.85;;;;;;;;;;5084709;28;20040;-73
2023/06/10 02:15:11;;;;;;;6.93;5.70;;;;;;;;;;5085772;28;20111;-73
2023/06/10 02:17:37;;;;;;;7.97;6.13;;;;;;;;;;5065050;28;20016;-77
2023/06/10 02:20:04;;;;;;;8.50;6.30;;;;;;;;;;5067775;28;20032;-73
2023/06/10 02:22:30;;;;;;;11.50;5.80;;;;;;;;;;5083596;28;20089;-73
2023/06/10 02:24:55;;;;;;;6.85;5.70;;;;;;;;;;5068303;28;20032;-73
2023/06/10 02:27:21;;;;;;;8.07;5.32;;;;;;;;;;5066816;28;20032;-73
2023/06/10 02:29:46;;;;;;;8.25;5.85;;;;;;;;;;5083912;28;20021;-73
2023/06/10 02:32:11;;;;;;;8.10;5.90;;;;;;;;;;5082137;28;20101;-73
2023/06/10 02:34:37;;;;;;;7.40;5.82;;;;;;;;;;5084513;28;20263;-74
2023/06/10 02:37:03;;;;;;;6.20;5.55;;;;;;;;;;5062370;28;20085;-74
2023/06/10 02:39:28;;;;;;;6.38;5.65;;;;;;;;;;5082577;28;20380;-73
2023/06/10 02:41:54;;;;;;;8.05;5.40;;;;;;;;;;5063607;28;20054;-73
2023/06/10 02:44:20;;;;;;;8.18;5.93;;;;;;;;;;5086701;28;20426;-72
2023/06/10 02:46:45;;;;;;;7.10;5.70;;;;;;;;;;5083085;28;20020;-72
2023/06/10 02:49:11;;;;;;;7.32;5.90;;;;;;;;;;5085554;28;20031;-72
2023/06/10 02:51:37;;;;;;;6.65;5.85;;;;;;;;;;5081694;28;20036;-73
2023/06/10 02:54:02;;;;;;;8.45;5.68;;;;;;;;;;5083315;28;20028;-75
2023/06/10 02:56:28;;;;;;;7.25;5.43;;;;;;;;;;5064997;28;20029;-76
2023/06/10 02:58:53;;;;;;;7.90;5.60;;;;;;;;;;5081354;28;20025;-74
2023/06/10 03:01:19;;;;;;;9.50;5.50;;;;;;;;;;5084551;28;20519;-73
2023/06/10 03:03:46;;;;;;;8.05;6.00;;;;;;;;;;5083733;28;20035;-72
2023/06/10 03:06:12;;;;;;;7.72;5.78;;;;;;;;;;5060474;28;20043;-72
2023/06/10 03:08:38;;;;;;;6.50;5.05;;;;;;;;;;5083793;28;20032;-72
2023/06/10 03:11:04;;;;;;;7.07;5.35;;;;;;;;;;5080824;28;20288;-72
2023/06/10 03:13:29;;;;;;;8.55;5.95;;;;;;;;;;5067843;28;20028;-73
2023/06/10 03:15:54;;;;;;;7.50;5.57;;;;;;;;;;5083372;28;20050;-73
2023/06/10 03:18:20;;;;;;;7.85;5.70;;;;;;;;;;5081241;28;20067;-73
2023/06/10 03:20:45;;;;;;;6.30;5.10;;;;;;;;;;5061208;28;20030;-74
2023/06/10 03:23:11;;;;;;;7.88;5.47;;;;;;;;;;5066470;28;20027;-72
2023/06/10 03:25:36;;;;;;;7.07;5.03;;;;;;;;;;5080979;28;20032;-72
2023/06/10 03:28:02;;;;;;;7.40;5.55;;;;;;;;;;5082369;28;20016;-72
2023/06/10 03:30:28;;;;;;;7.32;5.70;;;;;;;;;;5071620;28;20135;-72
2023/06/10 03:32:53;;;;;;;8.05;5.68;;;;;;;;;;5064814;28;20027;-73
2023/06/10 03:35:19;;;;;;;7.60;5.70;;;;;;;;;;5064051;28;20415;-72
2023/06/10 03:37:45;;;;;;;8.70;5.45;;;;;;;;;;5079399;28;20070;-73
2023/06/10 03:40:11;;;;;;;7.50;5.25;;;;;;;;;;5066378;28;20028;-72
2023/06/10 03:42:36;;;;;;;9.25;5.68;;;;;;;;;;5061547;28;20024;-74
2023/06/10 03:45:04;;;;;;;7.72;5.00;;;;;;;;;;5060538;28;20032;-74
2023/06/10 03:47:40;;;;;;;8.15;4.93;;;;;;;;;;5078873;28;20028;-72
2023/06/10 03:50:07;;;;;;;7.72;5.30;;;;;;;;;;5079527;28;20029;-72
2023/06/10 03:52:33;;;;;;;8.23;5.60;;;;;;;;;;5083459;28;20119;-72
2023/06/10 03:54:59;;;;;;;8.30;4.82;;;;;;;;;;5063180;28;20135;-72
2023/06/10 03:57:24;;;;;;;7.72;5.38;;;;;;;;;;5078158;28;20029;-73
2023/06/10 03:59:50;;;;;;;9.38;5.28;;;;;;;;;;5062082;28;20017;-72
2023/06/10 04:02:16;;;;;;;7.13;5.22;;;;;;;;;;5058022;28;20125;-73
2023/06/10 04:04:41;;;;;;;6.38;5.10;;;;;;;;;;5081785;28;20082;-77
2023/06/10 04:07:08;;;;;;;7.25;5.10;;;;;;;;;;5080898;28;20083;-74
2023/06/10 04:09:33;;;;;;;9.15;5.00;;;;;;;;;;5060349;28;20036;-72
2023/06/10 04:11:58;;;;;;;7.40;5.03;;;;;;;;;;5057785;28;20380;-73
2023/06/10 04:14:24;;;;;;;7.15;5.20;;;;;;;;;;5083609;28;20043;-73
2023/06/10 04:16:50;;;;;;;7.15;5.05;;;;;;;;;;5079978;28;20059;-72
2023/06/10 04:19:16;;;;;;;8.05;5.18;;;;;;;;;;5061443;28;20107;-73
2023/06/10 04:21:41;;;;;;;6.78;4.72;;;;;;;;;;5079096;28;20026;-73
2023/06/10 04:24:07;;;;;;;7.25;4.70;;;;;;;;;;5056883;28;20080;-72
2023/06/10 04:26:33;;;;;;;8.48;4.80;;;;;;;;;;5086557;28;20083;-73
2023/06/10 04:28:58;;;;;;;6.50;4.57;;;;;;;;;;5088049;28;20032;-73
2023/06/10 04:31:24;;;;;;;6.97;4.93;;;;;;;;;;5083990;28;20037;-72
2023/06/10 04:33:50;;;;;;;5.93;4.53;;;;;;;;;;5092904;28;20110;-73
2023/06/10 04:36:15;;;;;;;6.85;4.90;;;;;;;;;;5070005;28;20027;-72
2023/06/10 04:38:41;;;;;;;7.55;4.50;;;;;;;;;;5067517;28;20100;-72
2023/06/10 04:41:06;;;;;;;7.38;4.78;;;;;;;;;;5082863;28;20039;-72
2023/06/10 04:43:32;;;;;;;8.05;5.10;;;;;;;;;;5067768;28;20461;-72
2023/06/10 04:45:57;;;;;;;8.30;5.25;;;;;;;;;;5087217;28;20050;-72
2023/06/10 04:48:23;;;;;;;7.82;4.60;;;;;;;;;;5087652;28;20515;-72
2023/06/10 04:50:50;;;;;;;7.72;4.60;;;;;;;;;;5069412;28;20039;-73
2023/06/10 04:53:16;;;;;;;7.78;4.60;;;;;;;;;;5062826;28;20112;-75
2023/06/10 04:55:42;;;;;;;6.75;4.13;;;;;;;;;;5069410;28;20024;-73
2023/06/10 04:58:07;;;;;;;6.40;4.35;;;;;;;;;;5086807;28;20031;-73
2023/06/10 05:00:32;;;;;;;7.95;4.47;;;;;;;;;;5066931;28;20021;-72
2023/06/10 05:02:58;;;;;;;7.88;4.55;;;;;;;;;;5084243;28;20028;-73
2023/06/10 05:05:23;;;;;;;7.22;4.43;;;;;;;;;;5086406;28;20016;-72
2023/06/10 05:07:48;;;;;;;7.75;4.50;;;;;;;;;;5086390;28;20039;-73
2023/06/10 05:10:14;;;;;;;6.72;4.53;;;;;;;;;;5080837;28;20411;-72
2023/06/10 05:12:40;;;;;;;5.78;4.18;;;;;;;;;;5069695;28;20090;-76
2023/06/10 05:15:07;;;;;;;6.93;4.22;;;;;;;;;;5084259;28;20036;-74
2023/06/10 05:17:33;;;;;;;6.07;4.20;;;;;;;;;;5084215;28;20082;-73
2023/06/10 05:19:58;;;;;;;8.55;4.50;;;;;;;;;;5069648;28;20028;-73
2023/06/10 05:22:27;;;;;;;8.40;4.90;;;;;;;;;;5066143;28;20025;-73
2023/06/10 05:24:53;;;;;;;8.82;4.40;;;;;;;;;;5080989;28;20472;-74
2023/06/10 05:27:18;;;;;;;8.20;4.20;;;;;;;;;;5086343;28;20031;-73
2023/06/10 05:29:43;;;;;;;7.57;4.30;;;;;;;;;;5063951;28;20060;-72
2023/06/10 05:32:09;;;;;;;6.45;4.43;;;;;;;;;;5087403;28;20056;-72
2023/06/10 05:34:34;;;;;;;5.82;4.47;;;;;;;;;;5086947;28;20377;-72
2023/06/10 05:36:59;;;;;;;7.72;4.25;;;;;;;;;;5081724;28;20092;-77
2023/06/10 05:39:25;;;;;;;6.60;4.53;;;;;;;;;;5075755;28;20035;-76
2023/06/10 05:41:50;;;;;;;7.50;4.35;;;;;;;;;;5058045;28;20124;-77
2023/06/10 05:44:15;;;;;;;7.95;4.65;;;;;;;;;;5074322;28;20079;-76
2023/06/10 05:46:41;;;;;;;7.30;4.57;;;;;;;;;;5079792;28;20516;-77
2023/06/10 05:49:06;;;;;;;8.10;4.45;;;;;;;;;;5074739;28;20602;-77
2023/06/10 05:51:31;;;;;;;9.50;4.95;;;;;;;;;;5072072;28;20443;-77
2023/06/10 05:53:57;;;;;;;6.82;4.22;;;;;;;;;;5080552;28;20020;-77
2023/06/10 05:56:22;;;;;;;6.95;4.90;;;;;;;;;;5056796;28;20028;-77
2023/06/10 05:58:48;;;;;;;7.82;5.00;;;;;;;;;;5072847;28;20059;-77
2023/06/10 06:01:14;;;;;;;9.10;5.20;;;;;;;;;;5075812;28;20107;-76
2023/06/10 06:03:39;;;;;;;8.02;4.60;;;;;;;;;;5073989;28;20509;-77
2023/06/10 06:06:05;;;;;;;9.60;5.68;;;;;;;;;;5076769;28;20063;-76
2023/06/10 06:08:31;;;;;;;9.43;4.57;;;;;;;;;;5076040;28;20028;-77
2023/06/10 06:10:56;;;;;;;6.63;4.50;;;;;;;;;;5057964;28;20126;-77
2023/06/10 06:13:22;;;;;;;7.20;4.78;;;;;;;;;;5055968;28;20447;-77
2023/06/10 06:15:47;;;;;;;7.07;4.68;;;;;;;;;;5064045;28;20028;-77
2023/06/10 06:18:12;;;;;;;6.80;4.65;;;;;;;;;;5076001;28;20806;-77
2023/06/10 06:20:38;;;;;;;7.47;4.57;;;;;;;;;;5059017;28;20494;-77
2023/06/10 06:23:03;;;;;;;10.43;4.43;;;;;;;;;;5075155;28;20016;-77
2023/06/10 06:25:29;;;;;;;7.30;4.47;;;;;;;;;;5081539;28;20092;-77
2023/06/10 06:27:54;;;;;;;9.82;5.20;;;;;;;;;;5074065;28;20032;-77
2023/06/10 06:30:19;;;;;;;8.10;4.43;;;;;;;;;;5055757;28;20077;-77
2023/06/10 06:32:45;;;;;;;7.68;4.68;;;;;;;;;;5074271;28;20035;-77
2023/06/10 06:35:10;;;;;;;7.65;4.68;;;;;;;;;;5078742;28;20039;-77
2023/06/10 06:37:36;;;;;;;6.70;4.68;;;;;;;;;;5072051;28;20511;-76
2023/06/10 06:40:02;;;;;;;10.57;5.10;;;;;;;;;;5074644;28;20438;-76
2023/06/10 06:42:27;;;;;;;9.23;4.88;;;;;;;;;;5061438;28;20093;-77
2023/06/10 06:44:53;;;;;;;6.18;4.10;;;;;;;;;;5078658;28;20056;-77
2023/06/10 06:47:19;;;;;;;7.05;4.32;;;;;;;;;;5059456;28;20032;-76
2023/06/10 06:49:48;;;;;;;8.75;4.53;;;;;;;;;;5054124;28;20024;-77
2023/06/10 06:52:15;;;;;;;7.80;4.45;;;;;;;;;;5058103;28;20115;-77
2023/06/10 06:54:40;;;;;;;8.88;5.40;;;;;;;;;;5069062;28;20025;-77
2023/06/10 06:57:06;;;;;;;11.48;4.82;;;;;;;;;;5052413;28;20503;-77
2023/06/10 06:59:32;;;;;;;7.63;4.60;;;;;;;;;;5060169;28;20023;-77
2023/06/10 07:01:58;;;;;;;6.70;4.55;;;;;;;;;;5059429;28;20035;-77
2023/06/10 07:04:23;;;;;;;8.10;4.30;;;;;;;;;;5070164;28;20035;-76
2023/06/10 07:06:48;;;;;;;7.95;4.75;;;;;;;;;;5079065;28;20020;-77
2023/06/10 07:09:14;;;;;;;7.07;4.68;;;;;;;;;;5075511;28;20028;-77
2023/06/10 07:11:39;;;;;;;7.13;4.38;;;;;;;;;;5062154;28;20103;-77
2023/06/10 07:14:05;;;;;;;8.70;4.63;;;;;;;;;;5055224;28;20394;-77
2023/06/10 07:16:30;;;;;;;7.38;4.40;;;;;;;;;;5059176;28;20029;-77
2023/06/10 07:18:55;;;;;;;7.03;4.63;;;;;;;;;;5064696;28;20031;-77
2023/06/10 07:21:22;;;;;;;9.15;4.57;;;;;;;;;;5059138;28;20039;-77
2023/06/10 07:23:47;;;;;;;6.00;3.97;;;;;;;;;;5062358;28;20365;-76
2023/06/10 07:26:13;;;;;;;8.73;4.45;;;;;;;;;;5070266;28;20028;-77
2023/06/10 07:28:41;;;;;;;7.47;4.25;;;;;;;;;;5067651;28;20024;-77
2023/06/10 07:31:08;;;;;;;8.25;4.50;;;;;;;;;;5053608;28;20164;-76
2023/06/10 07:33:33;;;;;;;8.27;4.80;;;;;;;;;;5078627;28;20037;-76
2023/06/10 07:35:59;;;;;;;8.07;4.10;;;;;;;;;;5056414;28;20028;-77
2023/06/10 07:38:25;;;;;;;7.78;4.65;;;;;;;;;;5070418;28;20107;-77
2023/06/10 07:40:51;;;;;;;6.55;4.07;;;;;;;;;;5056205;28;20085;-76
2023/06/10 07:43:17;;;;;;;6.45;4.25;;;;;;;;;;5061183;28;20036;-77
2023/06/10 07:45:43;;;;;;;5.95;3.90;;;;;;;;;;5077171;28;20445;-77
2023/06/10 07:48:08;;;;;;;6.88;4.32;;;;;;;;;;5081382;28;20450;-75
2023/06/10 07:50:34;;;;;;;5.75;4.07;;;;;;;;;;5076088;28;20059;-75
2023/06/10 07:53:00;;;;;;;7.40;4.70;;;;;;;;;;5073302;28;20118;-75
2023/06/10 07:55:28;;;;;;;7.10;4.22;;;;;;;;;;5072690;28;20029;-75
2023/06/10 07:57:54;;;;;;;7.15;4.13;;;;;;;;;;5052967;28;20369;-75
2023/06/10 08:00:20;;;;;;;7.72;4.20;;;;;;;;;;5078338;28;20031;-75
2023/06/10 08:02:45;;;;;;;6.47;4.00;;;;;;;;;;5078771;28;20032;-75
2023/06/10 08:05:11;;;;;;;6.68;3.75;;;;;;;;;;5075401;28;20016;-76
2023/06/10 08:07:36;;;;;;;7.28;4.25;;;;;;;;;;5079153;28;20020;-77
2023/06/10 08:10:02;;;;;;;7.50;4.38;;;;;;;;;;5086523;28;20028;-77
2023/06/10 08:12:28;;;;;;;5.93;3.88;;;;;;;;;;5064528;28;20028;-77
2023/06/10 08:14:54;;;;;;;7.03;4.25;;;;;;;;;;5062906;28;20032;-77
2023/06/10 08:17:20;;;;;;;6.70;3.67;;;;;;;;;;5080389;28;20024;-77
2023/06/10 08:19:45;;;;;;;7.25;4.07;;;;;;;;;;5081319;28;20034;-77
2023/06/10 08:22:10;;;;;;;6.13;4.22;;;;;;;;;;5084405;28;20051;-77
2023/06/10 08:24:36;;;;;;;7.10;4.10;;;;;;;;;;5059876;28;20020;-77
2023/06/10 08:27:01;;;;;;;6.00;4.05;;;;;;;;;;5062610;28;20385;-77
2023/06/10 08:29:27;;;;;;;7.05;4.03;;;;;;;;;;5076782;28;20043;-77
2023/06/10 08:31:52;;;;;;;7.47;4.63;;;;;;;;;;5064584;28;20084;-76
2023/06/10 08:34:17;;;;;;;9.50;4.38;;;;;;;;;;5077698;28;20036;-77
2023/06/10 08:36:43;;;;;;;8.57;4.20;;;;;;;;;;5081367;28;20456;-76
2023/06/10 08:39:09;;;;;;;4.97;3.70;;;;;;;;;;5059541;28;21499;-76
2023/06/10 08:41:42;;;;;;;7.90;4.68;;;;;;;;;;5081436;28;20018;-77
2023/06/10 08:44:24;;;;;;;7.60;4.43;;;;;;;;;;5053196;28;20035;-78
2023/06/10 08:46:51;;;;;;;7.28;3.92;;;;;;;;;;5077823;28;20054;-77
2023/06/10 08:49:22;;;;;;;6.25;3.97;;;;;;;;;;5059430;28;20043;-77
2023/06/10 08:51:51;;;;;;;8.77;4.85;;;;;;;;;;5078259;28;20032;-77
2023/06/10 08:54:26;;;;;;;6.30;4.10;;;;;;;;;;5049759;28;20020;-76
2023/06/10 08:56:55;;;;;;;7.95;4.57;;;;;;;;;;5064189;28;20024;-77
2023/06/10 08:59:21;;;;;;;8.65;4.60;;;;;;;;;;5074068;28;20025;-78
2023/06/10 09:01:47;;;;;;;7.00;3.83;;;;;;;;;;5057792;28;20031;-78
2023/06/10 09:04:12;;;;;;;8.68;4.50;;;;;;;;;;5075419;28;20407;-77
2023/06/10 09:06:39;;;;;;;11.27;4.15;;;;;;;;;;5075478;28;20032;-78
2023/06/10 09:09:06;;;;;;;7.40;3.70;;;;;;;;;;5075600;28;20028;-77
2023/06/10 09:11:32;;;;;;;6.32;4.13;;;;;;;;;;5074361;28;20064;-78
2023/06/10 09:13:57;;;;;;;6.43;4.50;;;;;;;;;;5060538;28;20120;-78
2023/06/10 09:16:24;;;;;;;7.13;4.50;;;;;;;;;;5069015;28;20151;-78
2023/06/10 09:18:54;;;;;;;7.00;4.50;;;;;;;;;;5054049;28;20028;-78
2023/06/10 09:21:23;;;;;;;10.27;4.65;;;;;;;;;;5049294;28;20396;-78
2023/06/10 09:23:48;;;;;;;8.82;4.43;;;;;;;;;;5072191;28;20027;-77
2023/06/10 09:26:14;;;;;;;8.07;4.25;;;;;;;;;;5064617;28;20035;-76
2023/06/10 09:28:40;;;;;;;7.43;3.97;;;;;;;;;;5068409;28;20032;-77
2023/06/10 09:31:07;;;;;;;7.38;4.18;;;;;;;;;;5055448;28;20034;-77
2023/06/10 09:33:33;;;;;;;7.35;4.35;;;;;;;;;;5071329;28;20024;-76
2023/06/10 09:36:01;;;;;;;8.82;4.90;;;;;;;;;;5051261;28;20036;-77
2023/06/10 09:38:31;;;;;;;7.07;4.78;;;;;;;;;;5068581;28;20106;-77
2023/06/10 09:40:57;;;;;;;9.18;4.22;;;;;;;;;;5057844;28;20034;-77
2023/06/10 09:43:22;;;;;;;7.40;4.50;;;;;;;;;;5068824;28;20036;-77
2023/06/10 09:45:49;;;;;;;8.38;4.25;;;;;;;;;;5050144;28;20028;-77
2023/06/10 09:48:15;;;;;;;6.65;3.90;;;;;;;;;;5057204;28;20032;-77
2023/06/10 09:50:44;;;;;;;6.32;4.18;;;;;;;;;;5069639;28;20028;-77
2023/06/10 09:53:10;;;;;;;8.07;4.55;;;;;;;;;;5072827;28;20040;-77
2023/06/10 09:55:38;;;;;;;6.65;3.88;;;;;;;;;;5075553;28;20028;-78
2023/06/10 09:58:04;;;;;;;7.57;4.78;;;;;;;;;;5074157;28;20032;-78
2023/06/10 10:00:32;;;;;;;6.68;3.72;;;;;;;;;;5056739;28;20460;-78
2023/06/10 10:02:58;;;;;;;6.45;4.22;;;;;;;;;;5051139;28;20030;-77
2023/06/10 10:05:24;;;;;;;6.63;4.40;;;;;;;;;;5055656;28;20032;-77
2023/06/10 10:07:50;;;;;;;7.28;5.07;;;;;;;;;;5074645;28;20106;-78
2023/06/10 10:10:17;;;;;;;6.85;4.22;;;;;;;;;;5071273;28;20032;-78
2023/06/10 10:12:45;;;;;;;7.28;4.43;;;;;;;;;;5049774;28;20507;-77
2023/06/10 10:15:11;;;;;;;7.03;4.50;;;;;;;;;;5077907;28;20443;-77
2023/06/10 10:17:47;;;;;;;8.82;4.45;;;;;;;;;;5051186;28;20033;-77
2023/06/10 10:20:17;;;;;;;8.07;4.00;;;;;;;;;;5069663;28;20106;-77
2023/06/10 10:22:46;;;;;;;6.80;4.40;;;;;;;;;;5055738;28;20031;-78
2023/06/10 10:25:16;;;;;;;5.97;3.97;;;;;;;;;;5068151;28;20516;-77
2023/06/10 10:27:54;;;;;;;8.70;4.30;;;;;;;;;;5069112;28;20036;-78
2023/06/10 10:30:21;;;;;;;6.13;4.07;;;;;;;;;;5051622;28;20028;-78
2023/06/10 10:33:35;;;;;;;8.25;4.28;;;;;;;;;;5043944;28;20084;-78
2023/06/10 10:36:02;;;;;;;6.78;4.10;;;;;;;;;;4984098;28;20038;-78
2023/06/10 10:38:28;;;;;;;7.30;4.43;;;;;;;;;;4971608;28;20452;-78
2023/06/10 10:40:55;;;;;;;6.07;4.07;;;;;;;;;;5029207;28;20040;-78
2023/06/10 10:43:21;;;;;;;6.53;4.20;;;;;;;;;;5053317;28;20484;-78
2023/06/10 10:45:58;;;;;;;7.32;4.80;;;;;;;;;;5052039;28;20077;-78
2023/06/10 10:48:24;;;;;;;6.13;4.30;;;;;;;;;;5056696;28;20119;-78
2023/06/10 10:50:57;;;;;;;7.18;4.25;;;;;;;;;;5052810;28;20032;-78
2023/06/10 10:53:23;;;;;;;8.95;4.68;;;;;;;;;;5072494;28;20028;-78
2023/06/10 10:56:12;;;;;;;6.57;4.20;;;;;;;;;;5051150;28;20500;-78
2023/06/10 10:58:37;;;;;;;6.93;4.43;;;;;;;;;;5064334;28;21546;-78
2023/06/10 11:01:14;;;;;;;7.47;3.97;;;;;;;;;;5046216;28;20032;-78
2023/06/10 11:03:45;;;;;;;6.60;4.38;;;;;;;;;;5069728;28;20036;-78
2023/06/10 11:06:15;;;;;;;7.43;4.30;;;;;;;;;;5046396;28;20036;-78
2023/06/10 11:08:40;;;;;;;5.22;4.00;;;;;;;;;;5065370;28;20112;-78
2023/06/10 11:11:18;;;;;;;6.20;4.05;;;;;;;;;;5052100;28;20151;-78
2023/06/10 11:14:06;;;;;;;7.15;4.47;;;;;;;;;;5053273;28;20430;-78
2023/06/10 11:16:41;;;;;;;7.38;4.30;;;;;;;;;;5066408;28;20036;-78
2023/06/10 11:19:06;;;;;;;6.82;4.30;;;;;;;;;;5068460;28;20060;-78
2023/06/10 11:21:36;;;;;;;5.47;4.25;;;;;;;;;;5053531;28;20122;-78
2023/06/10 11:24:13;;;;;;;7.30;4.30;;;;;;;;;;5069291;28;20418;-78
2023/06/10 11:26:44;;;;;;;4.95;3.88;;;;;;;;;;5073481;28;20439;-78
2023/06/10 11:29:09;;;;;;;5.30;3.92;;;;;;;;;;5069069;28;20047;-78
2023/06/10 11:31:40;;;;;;;7.40;4.00;;;;;;;;;;5076479;28;20029;-78
2023/06/10 11:34:07;;;;;;;6.07;4.68;;;;;;;;;;5071652;28;20029;-78
2023/06/10 11:36:34;;;;;;;7.20;4.35;;;;;;;;;;5071703;28;20480;-78
2023/06/10 11:39:02;;;;;;;5.75;3.88;;;;;;;;;;5067641;28;20115;-78
2023/06/10 11:41:30;;;;;;;6.40;4.10;;;;;;;;;;5068354;28;20071;-78
2023/06/10 11:43:57;;;;;;;6.07;4.22;;;;;;;;;;5047129;28;20359;-78
2023/06/10 11:46:23;;;;;;;5.75;4.32;;;;;;;;;;5048771;28;20060;-78
2023/06/10 11:48:56;;;;;;;12.50;4.07;;;;;;;;;;5065925;28;20571;-78
2023/06/10 11:51:26;;;;;;;5.70;3.72;;;;;;;;;;5070471;28;20081;-78
2023/06/10 11:53:52;;;;;;;5.55;4.20;;;;;;;;;;5049365;28;20038;-78
2023/06/10 11:56:22;;;;;;;5.30;4.07;;;;;;;;;;5045414;28;20031;-78
2023/06/10 11:59:04;;;;;;;7.72;4.20;;;;;;;;;;5065180;28;20034;-78
2023/06/10 12:01:30;;;;;;;8.05;4.50;;;;;;;;;;5068577;28;20056;-78
2023/06/10 12:04:03;;;;;;;7.15;4.15;;;;;;;;;;5069113;28;20021;-78
2023/06/10 12:06:39;;;;;;;5.10;3.63;;;;;;;;;;5054263;28;20035;-78
2023/06/10 12:09:05;;;;;;;9.57;5.05;;;;;;;;;;5069295;28;20028;-78
2023/06/10 12:11:30;;;;;;;6.13;3.80;;;;;;;;;;5072318;28;20035;-78
2023/06/10 12:13:56;;;;;;;7.90;4.22;;;;;;;;;;5067477;28;20043;-78
2023/06/10 12:16:22;;;;;;;5.82;3.97;;;;;;;;;;5065790;28;20119;-78
2023/06/10 12:18:48;;;;;;;9.88;4.00;;;;;;;;;;5048848;28;20115;-78
2023/06/10 12:21:23;;;;;;;6.93;4.10;;;;;;;;;;5073154;28;20058;-77
2023/06/10 12:24:05;;;;;;;5.20;3.80;;;;;;;;;;5072531;28;20487;-78
2023/06/10 12:26:38;;;;;;;5.63;4.00;;;;;;;;;;5076590;28;20028;-78
2023/06/10 12:29:19;;;;;;;5.47;4.28;;;;;;;;;;5059593;28;20655;-78
2023/06/10 12:32:00;;;;;;;9.98;4.10;;;;;;;;;;5052887;28;20028;-77
2023/06/10 12:34:33;;;;;;;7.22;4.30;;;;;;;;;;5061714;28;20028;-77
2023/06/10 12:36:59;;;;;;;6.15;3.92;;;;;;;;;;5074981;28;20498;-77
2023/06/10 12:39:25;;;;;;;7.97;4.13;;;;;;;;;;5077614;28;20480;-78
2023/06/10 12:41:54;;;;;;;5.20;4.10;;;;;;;;;;5074455;28;20111;-78
2023/06/10 12:44:31;;;;;;;5.28;3.95;;;;;;;;;;5058383;28;20027;-77
2023/06/10 12:46:57;;;;;;;6.38;3.90;;;;;;;;;;5062233;28;20039;-77
2023/06/10 12:49:22;;;;;;;6.55;4.22;;;;;;;;;;5059629;28;20032;-77
2023/06/10 12:51:48;;;;;;;5.13;3.75;;;;;;;;;;5055633;28;20140;-77
2023/06/10 12:54:13;;;;;;;6.78;3.83;;;;;;;;;;5065303;28;20034;-77
2023/06/10 12:56:39;;;;;;;6.03;3.92;;;;;;;;;;5076175;28;20040;-77
2023/06/10 12:59:04;;;;;;;5.57;3.90;;;;;;;;;;5057460;28;20039;-77
2023/06/10 13:01:31;;;;;;;5.32;4.00;;;;;;;;;;5061525;28;20099;-78
2023/06/10 13:03:57;;;;;;;5.18;3.83;;;;;;;;;;5057645;28;20028;-77
2023/06/10 13:06:22;;;;;;;5.65;3.85;;;;;;;;;;5059630;28;20421;-76
2023/06/10 13:08:48;;;;;;;5.30;3.78;;;;;;;;;;5058874;28;20038;-77
2023/06/10 13:11:13;;;;;;;5.78;4.00;;;;;;;;;;5080707;28;20027;-77
2023/06/10 13:13:38;;;;;;;5.93;3.70;;;;;;;;;;5075392;28;20032;-77
2023/06/10 13:16:05;;;;;;;6.03;3.95;;;;;;;;;;5074547;28;20047;-76
2023/06/10 13:18:36;;;;;;;5.45;3.97;;;;;;;;;;5063306;28;20040;-77
2023/06/10 13:21:03;;;;;;;8.30;4.17;;;;;;;;;;5081376;28;20095;-77
2023/06/10 13:23:28;;;;;;;5.85;3.80;;;;;;;;;;5079504;28;20066;-77
2023/06/10 13:25:53;;;;;;;7.30;4.18;;;;;;;;;;5074275;28;20442;-77
2023/06/10 13:28:19;;;;;;;6.60;4.18;;;;;;;;;;5076760;28;20533;-77
2023/06/10 13:30:45;;;;;;;5.40;3.60;;;;;;;;;;5060194;28;20032;-77
2023/06/10 13:33:10;;;;;;;5.40;3.75;;;;;;;;;;5061485;28;20518;-77
2023/06/10 13:35:36;;;;;;;6.22;3.65;;;;;;;;;;5064024;28;20105;-78
2023/06/10 13:38:01;;;;;;;5.30;3.92;;;;;;;;;;5077635;28;20033;-76
2023/06/10 13:40:26;;;;;;;6.13;3.55;;;;;;;;;;5075680;28;20419;-76
2023/06/10 13:42:54;;;;;;;5.63;3.90;;;;;;;;;;5077625;28;20107;-76
2023/06/10 13:45:19;;;;;;;7.07;4.05;;;;;;;;;;5085479;28;20016;-77
2023/06/10 13:47:44;;;;;;;5.53;4.15;;;;;;;;;;5079884;28;20028;-77
2023/06/10 13:50:10;;;;;;;5.95;4.07;;;;;;;;;;5084081;28;20035;-77
2023/06/10 13:52:35;;;;;;;6.32;4.28;;;;;;;;;;5077958;28;20031;-77
2023/06/10 13:55:01;;;;;;;5.65;3.50;;;;;;;;;;5081504;28;20431;-77
2023/06/10 13:57:26;;;;;;;5.78;3.67;;;;;;;;;;5063520;28;20407;-77
2023/06/10 13:59:51;;;;;;;5.70;3.92;;;;;;;;;;5076460;28;20032;-77
2023/06/10 14:02:17;;;;;;;5.32;3.75;;;;;;;;;;5082799;28;20032;-76
2023/06/10 14:04:42;;;;;;;6.10;3.65;;;;;;;;;;5063772;28;20028;-77
2023/06/10 14:07:07;;;;;;;5.28;3.80;;;;;;;;;;5076946;28;20477;-77
2023/06/10 14:09:33;;;;;;;4.90;3.70;;;;;;;;;;5070981;28;20384;-77
2023/06/10 14:11:58;;;;;;;6.85;3.75;;;;;;;;;;5066113;28;20530;-77
2023/06/10 14:14:24;;;;;;;7.70;4.30;;;;;;;;;;5064015;28;20484;-77
2023/06/10 14:16:49;;;;;;;4.88;3.65;;;;;;;;;;5058012;28;20485;-77
2023/06/10 14:19:14;;;;;;;5.47;3.85;;;;;;;;;;5062841;28;20101;-77
2023/06/10 14:21:40;;;;;;;5.15;3.80;;;;;;;;;;5079841;28;20028;-77
2023/06/10 14:24:05;;;;;;;6.40;3.70;;;;;;;;;;5080338;28;20055;-77
2023/06/10 14:26:32;;;;;;;4.78;3.70;;;;;;;;;;5065328;28;20035;-77
2023/06/10 14:28:57;;;;;;;6.63;3.80;;;;;;;;;;5065803;28;20035;-77
2023/06/10 14:31:23;;;;;;;7.85;3.63;;;;;;;;;;5066620;28;20024;-77
2023/06/10 14:33:48;;;;;;;7.43;4.05;;;;;;;;;;5088116;28;20024;-77
2023/06/10 14:36:13;;;;;;;6.05;3.70;;;;;;;;;;5062303;28;20024;-76
2023/06/10 14:38:39;;;;;;;5.35;4.10;;;;;;;;;;5067388;28;20032;-76
2023/06/10 14:41:04;;;;;;;8.30;4.00;;;;;;;;;;5089683;28;20037;-76
2023/06/10 14:43:30;;;;;;;5.63;3.80;;;;;;;;;;5071015;28;20032;-77